createdAt,value
2023-02-12T00:00:45.405Z,101756.22
2023-02-12T00:03:49.685Z,101747.00
2023-02-12T00:06:53.550Z,101742.41
2023-02-12T00:09:58.607Z,101713.78
2023-02-12T00:13:01.730Z,101745.41
2023-02-12T00:16:10.065Z,101739.31
2023-02-12T00:19:13.243Z,101734.75
2023-02-12T00:22:17.538Z,101726.75
2023-02-12T00:25:20.785Z,101697.53
2023-02-12T00:28:24.395Z,101744.22
2023-02-12T00:31:30.740Z,101742.34
2023-02-12T00:34:34.233Z,101732.34
2023-02-12T00:37:37.336Z,101726.16
2023-02-12T00:40:40.911Z,101723.69
2023-02-12T00:43:44.577Z,101743.28
2023-02-12T00:46:48.140Z,101736.09
2023-02-12T00:49:53.025Z,101717.19
2023-02-12T00:52:56.401Z,101730.88
2023-02-12T00:56:00.347Z,101734.69
2023-02-12T00:59:03.827Z,101731.78
2023-02-12T01:02:07.002Z,101745.19
2023-02-12T01:05:11.115Z,101744.22
2023-02-12T01:08:16.521Z,101729.06
2023-02-12T01:11:20.960Z,101737.34
2023-02-12T01:14:26.157Z,101720.41
2023-02-12T01:17:29.547Z,101743.62
2023-02-12T01:20:33.597Z,101730.31
2023-02-12T01:23:37.225Z,101732.16
2023-02-12T01:26:40.420Z,101733.28
2023-02-12T01:29:47.024Z,101725.19
2023-02-12T01:32:50.328Z,101719.13
2023-02-12T01:35:54.272Z,101728.87
2023-02-12T01:38:59.356Z,101735.09
2023-02-12T01:42:04.370Z,101741.59
2023-02-12T01:45:13.560Z,101745.78
2023-02-12T01:48:19.474Z,101734.09
2023-02-12T01:51:24.403Z,101735.97
2023-02-12T01:54:29.363Z,101723.38
2023-02-12T01:57:34.840Z,101725.25
2023-02-12T02:00:39.270Z,101717.38
2023-02-12T02:03:45.366Z,101732.41
2023-02-12T02:06:54.578Z,101710.94
2023-02-12T02:09:59.214Z,101723.50
2023-02-12T02:13:23.694Z,101711.84
2023-02-12T02:16:30.759Z,101722.63
2023-02-12T02:19:36.640Z,101735.03
2023-02-12T02:23:10.261Z,101738.72
2023-02-12T02:26:34.001Z,101737.69
2023-02-12T02:29:47.716Z,101745.81
2023-02-12T02:33:09.998Z,101754.75
2023-02-12T02:36:32.192Z,101750.28
2023-02-12T02:39:42.112Z,101753.53
2023-02-12T02:43:28.442Z,101762.69
2023-02-12T02:46:36.552Z,101756.63
2023-02-12T02:49:51.448Z,101762.91
2023-02-12T02:53:02.749Z,101755.81
2023-02-12T02:56:09.018Z,101761.88
2023-02-12T02:59:19.014Z,101761.22
2023-02-12T03:02:29.587Z,101758.59
2023-02-12T03:05:38.293Z,101761.38
2023-02-12T03:08:49.856Z,101769.19
2023-02-12T03:11:57.554Z,101783.19
2023-02-12T03:15:12.514Z,101775.19
2023-02-12T03:18:27.043Z,101785.31
2023-02-12T03:21:35.573Z,101794.75
2023-02-12T03:24:48.131Z,101789.63
2023-02-12T03:28:10.089Z,101800.25
2023-02-12T03:31:26.225Z,101790.63
2023-02-12T03:35:14.979Z,101805.75
2023-02-12T03:38:28.408Z,101808.69
2023-02-12T03:41:40.457Z,101802.97
2023-02-12T03:44:53.530Z,101809.09
2023-02-12T03:47:59.938Z,101811.88
2023-02-12T03:51:16.270Z,101809.22
2023-02-12T03:54:22.294Z,101824.13
2023-02-12T03:57:37.193Z,101837.34
2023-02-12T04:00:41.242Z,101845.34
2023-02-12T04:03:45.167Z,101851.63
2023-02-12T04:06:50.592Z,101866.22
2023-02-12T04:09:54.204Z,101863.72
2023-02-12T04:13:16.305Z,101881.00
2023-02-12T04:16:33.318Z,101880.03
2023-02-12T04:20:27.793Z,101895.06
2023-02-12T04:23:40.274Z,101888.16
2023-02-12T04:26:49.318Z,101890.75
2023-02-12T04:30:01.479Z,101901.69
2023-02-12T04:33:10.850Z,101887.59
2023-02-12T04:36:21.290Z,101902.94
2023-02-12T04:39:32.981Z,101920.03
2023-02-12T04:42:45.002Z,101916.69
2023-02-12T04:45:48.119Z,101922.13
2023-02-12T04:48:57.687Z,101929.31
2023-02-12T04:52:01.900Z,101928.56
2023-02-12T04:55:05.481Z,101927.75
2023-02-12T04:58:09.237Z,101941.09
2023-02-12T05:01:13.000Z,101966.03
2023-02-12T05:04:17.576Z,101963.34
2023-02-12T05:07:20.959Z,101958.87
2023-02-12T05:10:24.126Z,101969.53
2023-02-12T05:13:27.953Z,101965.09
2023-02-12T05:16:31.087Z,101963.31
2023-02-12T05:19:35.278Z,101964.16
2023-02-12T05:22:38.587Z,101986.37
2023-02-12T05:25:42.028Z,101996.19
2023-02-12T05:28:45.291Z,101994.47
2023-02-12T05:31:48.799Z,101984.66
2023-02-12T05:34:52.129Z,101997.94
2023-02-12T05:37:55.797Z,102001.50
2023-02-12T05:41:10.835Z,101997.03
2023-02-12T05:44:15.299Z,102005.94
2023-02-12T05:47:18.596Z,102021.13
2023-02-12T05:50:22.177Z,102023.81
2023-02-12T05:53:34.550Z,102027.34
2023-02-12T05:56:43.986Z,102026.47
2023-02-12T05:59:47.554Z,102032.59
2023-02-12T06:02:51.014Z,102041.41
2023-02-12T06:05:55.065Z,102043.97
2023-02-12T06:08:58.836Z,102056.28
2023-02-12T06:12:02.218Z,102073.06
2023-02-12T06:15:05.764Z,102067.56
2023-02-12T06:18:09.399Z,102081.69
2023-02-12T06:21:12.632Z,102074.41
2023-02-12T06:24:17.619Z,102088.59
2023-02-12T06:27:21.531Z,102099.22
2023-02-12T06:30:25.054Z,102112.56
2023-02-12T06:33:28.574Z,102074.22
2023-02-12T06:36:32.646Z,102102.78
2023-02-12T06:39:36.248Z,102109.91
2023-02-12T06:42:39.624Z,102119.72
2023-02-12T06:45:42.815Z,102119.94
2023-02-12T06:48:46.528Z,102101.41
2023-02-12T06:51:49.811Z,102130.00
2023-02-12T06:54:53.620Z,102123.91
2023-02-12T06:57:56.731Z,102134.72
2023-02-12T07:01:18.783Z,102131.22
2023-02-12T07:04:22.352Z,102140.16
2023-02-12T07:07:25.877Z,102139.31
2023-02-12T07:10:29.116Z,102150.91
2023-02-12T07:13:35.063Z,102138.47
2023-02-12T07:16:41.365Z,102144.72
2023-02-12T07:19:44.810Z,102154.47
2023-02-12T07:22:48.035Z,102158.97
2023-02-12T07:25:59.534Z,102161.69
2023-02-12T07:29:03.092Z,102166.09
2023-02-12T07:32:07.423Z,102172.25
2023-02-12T07:35:10.724Z,102160.62
2023-02-12T07:38:14.458Z,102164.16
2023-02-12T07:41:21.842Z,102170.34
2023-02-12T07:44:25.584Z,102177.34
2023-02-12T07:47:28.838Z,102178.84
2023-02-12T07:50:32.230Z,102166.91
2023-02-12T07:53:36.246Z,102171.25
2023-02-12T07:56:44.269Z,102163.88
2023-02-12T07:59:47.412Z,102166.44
2023-02-12T08:02:54.690Z,102184.12
2023-02-12T08:05:58.352Z,102176.91
2023-02-12T08:09:03.698Z,102189.37
2023-02-12T08:12:07.473Z,102185.69
2023-02-12T08:15:11.549Z,102189.97
2023-02-12T08:18:17.193Z,102195.03
2023-02-12T08:21:23.376Z,102194.81
2023-02-12T08:24:26.913Z,102192.84
2023-02-12T08:27:30.238Z,102196.16
2023-02-12T08:30:33.816Z,102198.63
2023-02-12T08:33:37.473Z,102195.63
2023-02-12T08:36:41.103Z,102204.38
2023-02-12T08:39:44.253Z,102210.41
2023-02-12T08:42:47.612Z,102211.88
2023-02-12T08:45:50.735Z,102210.00
2023-02-12T08:49:00.109Z,102211.19
2023-02-12T08:52:03.599Z,102205.72
2023-02-12T08:55:07.401Z,102204.44
2023-02-12T08:58:10.622Z,102216.91
2023-02-12T09:01:25.433Z,102220.97
2023-02-12T09:04:29.543Z,102219.03
2023-02-12T09:07:33.144Z,102227.22
2023-02-12T09:10:40.676Z,102231.41
2023-02-12T09:13:46.254Z,102231.88
2023-02-12T09:16:52.671Z,102237.41
2023-02-12T09:19:57.578Z,102238.16
2023-02-12T09:23:01.018Z,102233.53
2023-02-12T09:26:06.200Z,102237.69
2023-02-12T09:29:10.026Z,102234.59
2023-02-12T09:32:13.604Z,102254.47
2023-02-12T09:35:18.735Z,102247.16
2023-02-12T09:38:22.238Z,102266.16
2023-02-12T09:41:44.494Z,102267.91
2023-02-12T09:45:05.908Z,102257.63
2023-02-12T09:48:43.354Z,102266.06
2023-02-12T09:51:54.026Z,102246.87
2023-02-12T09:54:58.375Z,102263.31
2023-02-12T09:58:10.652Z,102264.94
2023-02-12T10:01:17.441Z,102260.13
2023-02-12T10:04:22.770Z,102267.84
2023-02-12T10:07:32.346Z,102268.72
2023-02-12T10:10:52.954Z,102263.28
2023-02-12T10:14:18.419Z,102266.78
2023-02-12T10:17:37.552Z,102281.31
2023-02-12T10:20:58.812Z,102284.25
2023-02-12T10:24:21.184Z,102297.53
2023-02-12T10:27:41.168Z,102301.19
2023-02-12T10:31:04.457Z,102293.81
2023-02-12T10:34:25.232Z,102299.22
2023-02-12T10:37:32.846Z,102298.09
2023-02-12T10:40:39.380Z,102295.34
2023-02-12T10:43:44.811Z,102292.28
2023-02-12T10:46:48.467Z,102282.25
2023-02-12T10:50:01.068Z,102274.34
2023-02-12T10:53:04.647Z,102275.59
2023-02-12T10:56:12.278Z,102281.09
2023-02-12T10:59:24.297Z,102280.00
2023-02-12T11:02:32.411Z,102280.44
2023-02-12T11:05:36.734Z,102279.53
2023-02-12T11:08:42.249Z,102288.34
2023-02-12T11:11:49.594Z,102294.78
2023-02-12T11:15:03.756Z,102297.03
2023-02-12T11:18:20.382Z,102286.88
2023-02-12T11:21:25.438Z,102286.22
2023-02-12T11:24:36.979Z,102276.97
2023-02-12T11:27:45.779Z,102283.53
2023-02-12T11:31:00.341Z,102284.78
2023-02-12T11:34:04.698Z,102287.22
2023-02-12T11:37:19.459Z,102282.38
2023-02-12T11:40:29.974Z,102274.59
2023-02-12T11:43:37.512Z,102280.19
2023-02-12T11:46:49.999Z,102279.47
2023-02-12T11:50:05.962Z,102282.94
2023-02-12T11:53:20.959Z,102287.59
2023-02-12T11:56:25.555Z,102275.03
2023-02-12T11:59:39.965Z,102285.66
2023-02-12T12:03:16.747Z,102277.59
2023-02-12T12:06:27.724Z,102267.50
2023-02-12T12:10:01.786Z,102277.94
2023-02-12T12:13:14.248Z,102275.00
2023-02-12T12:16:47.441Z,102277.72
2023-02-12T12:20:05.400Z,102272.59
2023-02-12T12:23:49.212Z,102267.87
2023-02-12T12:27:03.954Z,102284.69
2023-02-12T12:30:19.065Z,102281.25
2023-02-12T12:33:32.524Z,102277.09
2023-02-12T12:37:03.330Z,102281.84
2023-02-12T12:40:20.850Z,102279.44
2023-02-12T12:43:36.617Z,102285.16
2023-02-12T12:46:48.131Z,102284.09
2023-02-12T12:50:27.138Z,102280.97
2023-02-12T12:53:57.714Z,102287.75
2023-02-12T12:57:19.745Z,102287.09
2023-02-12T13:01:06.903Z,102266.16
2023-02-12T13:04:45.736Z,102288.69
2023-02-12T13:07:53.318Z,102292.59
2023-02-12T13:11:30.681Z,102285.56
2023-02-12T13:14:39.095Z,102282.06
2023-02-12T13:17:46.299Z,102291.09
2023-02-12T13:21:16.282Z,102291.63
2023-02-12T13:24:32.129Z,102291.28
2023-02-12T13:27:45.680Z,102288.41
2023-02-12T13:30:54.008Z,102287.81
2023-02-12T13:34:02.829Z,102287.22
2023-02-12T13:37:16.140Z,102303.81
2023-02-12T13:40:26.578Z,102303.25
2023-02-12T13:43:48.600Z,102313.28
2023-02-12T13:47:04.925Z,102311.41
2023-02-12T13:50:24.627Z,102316.81
2023-02-12T13:53:46.485Z,102315.06
2023-02-12T13:56:54.727Z,102312.22
2023-02-12T14:00:00.425Z,102307.94
2023-02-12T14:03:10.373Z,102311.69
2023-02-12T14:06:22.336Z,102301.97
2023-02-12T14:10:00.348Z,102303.09
2023-02-12T14:13:13.392Z,102294.19
2023-02-12T14:16:20.760Z,102305.16
2023-02-12T14:19:50.863Z,102303.59
2023-02-12T14:23:21.792Z,102299.16
2023-02-12T14:26:37.480Z,102291.50
2023-02-12T14:30:24.180Z,102302.16
2023-02-12T14:33:29.148Z,102298.47
2023-02-12T14:36:33.361Z,102312.78
2023-02-12T14:39:38.585Z,102307.22
2023-02-12T14:42:55.500Z,102312.94
2023-02-12T14:46:25.857Z,102326.25
2023-02-12T14:49:53.366Z,102326.38
2023-02-12T14:53:30.938Z,102329.78
2023-02-12T14:56:47.542Z,102330.47
2023-02-12T15:00:13.960Z,102339.97
2023-02-12T15:03:20.631Z,102340.97
2023-02-12T15:06:38.537Z,102334.00
2023-02-12T15:09:52.957Z,102339.41
2023-02-12T15:13:34.984Z,102299.44
2023-02-12T15:16:49.449Z,102344.91
2023-02-12T15:20:04.409Z,102348.72
2023-02-12T15:23:33.810Z,102339.09
2023-02-12T15:26:47.328Z,102342.19
2023-02-12T15:29:56.205Z,102338.19
2023-02-12T15:33:14.267Z,102334.94
2023-02-12T15:36:27.393Z,102346.78
2023-02-12T15:39:45.371Z,102349.97
2023-02-12T15:43:00.089Z,102352.00
2023-02-12T15:46:16.863Z,102357.72
2023-02-12T15:49:25.564Z,102358.00
2023-02-12T15:52:36.599Z,102359.19
2023-02-12T15:55:46.935Z,102349.75
2023-02-12T15:58:54.692Z,102376.69
2023-02-12T16:02:03.984Z,102378.66
2023-02-12T16:05:16.221Z,102384.12
2023-02-12T16:08:23.504Z,102394.91
2023-02-12T16:11:31.000Z,102398.53
2023-02-12T16:14:49.148Z,102395.03
2023-02-12T16:17:55.889Z,102408.44
2023-02-12T16:21:22.956Z,102411.09
2023-02-12T16:24:48.688Z,102400.41
2023-02-12T16:28:08.929Z,102407.47
2023-02-12T16:31:17.456Z,102434.16
2023-02-12T16:34:37.471Z,102430.53
2023-02-12T16:37:51.212Z,102417.06
2023-02-12T16:41:35.817Z,102443.72
2023-02-12T16:44:42.474Z,102447.22
2023-02-12T16:47:51.666Z,102453.44
2023-02-12T16:50:59.301Z,102437.28
2023-02-12T16:54:06.109Z,102459.41
2023-02-12T16:57:13.518Z,102460.16
2023-02-12T17:00:24.560Z,102455.66
2023-02-12T17:03:33.307Z,102465.38
2023-02-12T17:06:38.244Z,102436.75
2023-02-12T17:09:44.839Z,102470.56
2023-02-12T17:12:52.680Z,102464.37
2023-02-12T17:16:01.917Z,102469.78
2023-02-12T17:19:06.966Z,102478.81
2023-02-12T17:22:31.237Z,102466.22
2023-02-12T17:25:39.286Z,102467.19
2023-02-12T17:28:45.360Z,102475.25
2023-02-12T17:31:55.374Z,102475.31
2023-02-12T17:35:02.968Z,102481.37
2023-02-12T17:38:08.913Z,102482.09
2023-02-12T17:41:15.636Z,102488.28
2023-02-12T17:44:21.481Z,102491.84
2023-02-12T17:47:27.106Z,102492.62
2023-02-12T17:50:32.608Z,102489.69
2023-02-12T17:53:39.733Z,102484.97
2023-02-12T17:56:44.275Z,102486.53
2023-02-12T17:59:49.989Z,102494.34
2023-02-12T18:02:57.124Z,102496.91
2023-02-12T18:06:04.489Z,102498.56
2023-02-12T18:09:12.623Z,102507.22
2023-02-12T18:12:19.018Z,102506.31
2023-02-12T18:15:27.900Z,102505.25
2023-02-12T18:18:36.075Z,102511.28
2023-02-12T18:21:48.015Z,102474.44
2023-02-12T18:24:52.750Z,102512.59
2023-02-12T18:27:58.485Z,102516.84
2023-02-12T18:31:05.887Z,102524.63
2023-02-12T18:34:11.242Z,102533.25
2023-02-12T18:37:18.972Z,102535.66
2023-02-12T18:40:28.468Z,102528.37
2023-02-12T18:43:37.686Z,102537.12
2023-02-12T18:46:47.121Z,102540.50
2023-02-12T18:49:54.561Z,102547.31
2023-02-12T18:53:02.348Z,102557.00
2023-02-12T18:56:11.085Z,102506.53
2023-02-12T18:59:19.380Z,102561.91
2023-02-12T19:02:27.473Z,102562.69
2023-02-12T19:05:38.456Z,102562.72
2023-02-12T19:08:44.352Z,102550.03
2023-02-12T19:11:53.604Z,102561.69
2023-02-12T19:15:01.018Z,102562.75
2023-02-12T19:18:10.469Z,102568.50
2023-02-12T19:21:20.740Z,102563.34
2023-02-12T19:24:40.857Z,102576.56
2023-02-12T19:27:52.192Z,102557.34
2023-02-12T19:30:57.676Z,102580.09
2023-02-12T19:34:09.761Z,102585.97
2023-02-12T19:37:17.143Z,102584.03
2023-02-12T19:40:23.161Z,102574.00
2023-02-12T19:43:30.089Z,102582.81
2023-02-12T19:46:39.901Z,102594.19
2023-02-12T19:49:46.513Z,102593.31
2023-02-12T19:52:52.823Z,102575.81
2023-02-12T19:56:05.517Z,102604.41
2023-02-12T19:59:17.808Z,102599.09
2023-02-12T20:02:23.166Z,102616.00
2023-02-12T20:05:30.830Z,102599.66
2023-02-12T20:08:40.287Z,102579.06
2023-02-12T20:11:46.720Z,102619.47
2023-02-12T20:14:51.876Z,102627.31
2023-02-12T20:17:59.685Z,102624.66
2023-02-12T20:21:12.985Z,102616.37
2023-02-12T20:24:19.787Z,102624.25
2023-02-12T20:27:26.964Z,102634.72
2023-02-12T20:30:35.221Z,102638.19
2023-02-12T20:33:41.223Z,102642.59
2023-02-12T20:36:48.060Z,102627.16
2023-02-12T20:39:55.794Z,102665.69
2023-02-12T20:43:03.217Z,102645.12
2023-02-12T20:46:12.382Z,102661.97
2023-02-12T20:49:20.462Z,102659.91
2023-02-12T20:52:26.422Z,102660.81
2023-02-12T20:55:31.526Z,102656.44
2023-02-12T20:58:36.493Z,102659.06
2023-02-12T21:01:43.645Z,102651.81
2023-02-12T21:04:52.432Z,102641.75
2023-02-12T21:07:59.089Z,102671.22
2023-02-12T21:11:13.636Z,102652.31
2023-02-12T21:14:23.129Z,102619.22
2023-02-12T21:17:28.475Z,102650.69
2023-02-12T21:20:33.676Z,102663.06
2023-02-12T21:23:39.067Z,102654.97
2023-02-12T21:26:45.886Z,102649.56
2023-02-12T21:29:55.265Z,102660.94
2023-02-12T21:33:06.827Z,102674.16
2023-02-12T21:36:15.337Z,102639.16
2023-02-12T21:39:29.571Z,102676.59
2023-02-12T21:42:33.772Z,102682.19
2023-02-12T21:45:38.454Z,102682.19
2023-02-12T21:48:43.017Z,102664.69
2023-02-12T21:51:50.617Z,102698.81
2023-02-12T21:54:58.312Z,102705.81
2023-02-12T21:58:03.956Z,102713.69
2023-02-12T22:01:16.612Z,102715.31
2023-02-12T22:04:21.516Z,102706.25
2023-02-12T22:07:26.266Z,102710.22
2023-02-12T22:10:29.822Z,102718.16
2023-02-12T22:13:33.489Z,102717.41
2023-02-12T22:16:37.540Z,102722.84
2023-02-12T22:19:41.053Z,102731.91
2023-02-12T22:22:44.800Z,102721.34
2023-02-12T22:25:48.107Z,102709.03
2023-02-12T22:28:54.539Z,102694.75
2023-02-12T22:31:58.638Z,102714.69
2023-02-12T22:35:02.249Z,102711.03
2023-02-12T22:38:05.661Z,102720.69
2023-02-12T22:41:10.348Z,102677.06
2023-02-12T22:44:14.811Z,102723.53
2023-02-12T22:47:18.344Z,102720.47
2023-02-12T22:50:21.541Z,102719.03
2023-02-12T22:53:26.015Z,102718.88
2023-02-12T22:56:29.235Z,102728.53
2023-02-12T22:59:32.710Z,102736.19
2023-02-12T23:02:36.609Z,102732.69
2023-02-12T23:05:40.119Z,102734.28
2023-02-12T23:08:44.050Z,102735.19
2023-02-12T23:11:49.001Z,102714.00
2023-02-12T23:14:52.194Z,102739.88
2023-02-12T23:17:55.574Z,102691.25
2023-02-12T23:20:59.508Z,102741.28
2023-02-12T23:24:03.089Z,102732.19
2023-02-12T23:27:06.401Z,102727.06
2023-02-12T23:30:10.509Z,102738.69
2023-02-12T23:33:13.703Z,102729.50
2023-02-12T23:36:17.329Z,102705.41
2023-02-12T23:39:20.712Z,102711.56
2023-02-12T23:42:24.187Z,102740.19
2023-02-12T23:45:28.521Z,102743.47
2023-02-12T23:48:32.596Z,102689.34
2023-02-12T23:51:35.817Z,102734.41
2023-02-12T23:54:40.868Z,102737.75
2023-02-12T23:57:44.043Z,102741.19
